createdAt,value
2023-03-17T00:00:12.346Z,-7.97
2023-03-17T00:03:00.038Z,-8.01
2023-03-17T00:05:52.136Z,-8.35
2023-03-17T00:08:51.507Z,-8.12
2023-03-17T00:11:38.367Z,-8.16
2023-03-17T00:14:25.526Z,-8.21
2023-03-17T00:17:12.906Z,-8.26
2023-03-17T00:20:00.793Z,-8.35
2023-03-17T00:22:47.678Z,-8.38
2023-03-17T00:25:39.796Z,-8.38
2023-03-17T00:28:26.639Z,-8.47
2023-03-17T00:31:17.342Z,-8.45
2023-03-17T00:34:06.038Z,-8.53
2023-03-17T00:36:54.054Z,-8.57
2023-03-17T00:39:42.788Z,-8.59
2023-03-17T00:42:29.995Z,-8.64
2023-03-17T00:45:16.934Z,-8.71
2023-03-17T00:48:05.240Z,-9.08
2023-03-17T00:50:52.147Z,-8.75
2023-03-17T00:53:40.582Z,-8.80
2023-03-17T00:56:36.517Z,-8.83
2023-03-17T00:59:25.655Z,-8.98
2023-03-17T01:02:13.286Z,-9.28
2023-03-17T01:05:06.207Z,-8.95
2023-03-17T01:07:54.988Z,-9.01
2023-03-17T01:10:45.389Z,-9.04
2023-03-17T01:13:33.522Z,-9.07
2023-03-17T01:16:20.999Z,-9.12
2023-03-17T01:19:08.019Z,-9.16
2023-03-17T01:21:55.079Z,-9.30
2023-03-17T01:24:42.076Z,-9.20
2023-03-17T01:27:29.140Z,-9.22
2023-03-17T01:30:16.121Z,-9.52
2023-03-17T01:33:03.213Z,-9.28
2023-03-17T01:35:55.030Z,-9.94
2023-03-17T01:38:42.194Z,-9.45
2023-03-17T01:41:29.178Z,-9.67
2023-03-17T01:44:16.283Z,-9.44
2023-03-17T01:47:04.903Z,-9.48
2023-03-17T01:49:57.148Z,-9.67
2023-03-17T01:52:44.375Z,-9.56
2023-03-17T01:55:36.068Z,-9.58
2023-03-17T01:58:23.155Z,-9.66
2023-03-17T02:01:10.966Z,-9.85
2023-03-17T02:04:01.768Z,-9.70
2023-03-17T02:06:57.426Z,-10.16
2023-03-17T02:09:47.634Z,-9.78
2023-03-17T02:12:34.953Z,-9.78
2023-03-17T02:15:22.741Z,-9.81
2023-03-17T02:18:32.575Z,-9.85
2023-03-17T02:22:12.446Z,-9.89
2023-03-17T02:25:03.247Z,-9.93
2023-03-17T02:27:55.514Z,-9.96
2023-03-17T02:30:44.198Z,-10.03
2023-03-17T02:33:31.797Z,-10.05
2023-03-17T02:36:18.957Z,-10.48
2023-03-17T02:39:06.890Z,-10.13
2023-03-17T02:41:55.016Z,-10.16
2023-03-17T02:44:41.955Z,-10.21
2023-03-17T02:47:28.974Z,-10.77
2023-03-17T02:50:16.208Z,-10.24
2023-03-17T02:53:03.497Z,-10.27
2023-03-17T02:55:50.424Z,-10.32
2023-03-17T02:58:37.692Z,-10.35
2023-03-17T03:01:24.712Z,-10.37
2023-03-17T03:04:12.005Z,-10.41
2023-03-17T03:06:59.038Z,-10.43
2023-03-17T03:09:46.147Z,-10.47
2023-03-17T03:12:33.117Z,-10.56
2023-03-17T03:15:20.047Z,-10.55
2023-03-17T03:18:07.157Z,-10.57
2023-03-17T03:20:54.428Z,-10.58
2023-03-17T03:23:41.364Z,-10.60
2023-03-17T03:26:28.347Z,-10.64
2023-03-17T03:29:15.423Z,-10.67
2023-03-17T03:32:02.369Z,-10.88
2023-03-17T03:34:49.459Z,-10.81
2023-03-17T03:37:36.543Z,-10.83
2023-03-17T03:40:23.983Z,-10.88
2023-03-17T03:43:22.504Z,-11.01
2023-03-17T03:46:10.898Z,-10.78
2023-03-17T03:48:57.909Z,-10.85
2023-03-17T03:51:44.878Z,-10.85
2023-03-17T03:54:31.883Z,-10.84
2023-03-17T03:57:18.949Z,-10.86
2023-03-17T04:00:05.823Z,-10.87
2023-03-17T04:02:59.030Z,-10.88
2023-03-17T04:05:46.209Z,-10.89
2023-03-17T04:08:33.261Z,-10.91
2023-03-17T04:11:20.374Z,-10.92
2023-03-17T04:14:07.619Z,-10.93
2023-03-17T04:16:54.561Z,-10.94
2023-03-17T04:19:42.194Z,-10.95
2023-03-17T04:22:31.458Z,-10.94
2023-03-17T04:25:18.492Z,-10.96
2023-03-17T04:28:05.324Z,-10.96
2023-03-17T04:30:52.341Z,-10.98
2023-03-17T04:33:39.267Z,-11.11
2023-03-17T04:36:27.268Z,-11.04
2023-03-17T04:39:14.840Z,-10.97
2023-03-17T04:42:02.137Z,-10.98
2023-03-17T04:44:49.120Z,-11.23
2023-03-17T04:47:36.066Z,-11.01
2023-03-17T04:50:23.806Z,-11.00
2023-03-17T04:53:10.823Z,-10.98
2023-03-17T04:55:57.753Z,-11.35
2023-03-17T04:58:30.841Z,-11.04
2023-03-17T05:00:59.104Z,-11.01
2023-03-17T05:03:28.326Z,-11.45
2023-03-17T05:06:00.540Z,-10.95
2023-03-17T05:08:31.069Z,-10.94
2023-03-17T05:10:58.743Z,-10.94
2023-03-17T05:13:27.209Z,-11.00
2023-03-17T05:15:55.747Z,-10.91
2023-03-17T05:18:25.514Z,-10.89
2023-03-17T05:20:52.799Z,-10.93
2023-03-17T05:23:20.760Z,-11.13
2023-03-17T05:25:48.504Z,-10.85
2023-03-17T05:28:15.687Z,-10.85
2023-03-17T05:30:43.686Z,-10.83
2023-03-17T05:33:10.677Z,-10.82
2023-03-17T05:35:37.958Z,-10.94
2023-03-17T05:38:04.987Z,-10.78
2023-03-17T05:40:32.736Z,-10.76
2023-03-17T05:42:59.778Z,-10.74
2023-03-17T05:45:26.898Z,-10.83
2023-03-17T05:47:53.798Z,-10.77
2023-03-17T05:50:20.631Z,-10.67
2023-03-17T05:52:48.807Z,-10.64
2023-03-17T05:55:16.164Z,-10.61
2023-03-17T05:57:43.205Z,-10.60
2023-03-17T06:00:12.776Z,-10.56
2023-03-17T06:02:40.303Z,-10.54
2023-03-17T06:05:08.941Z,-10.52
2023-03-17T06:07:50.893Z,-10.49
2023-03-17T06:10:18.846Z,-10.46
2023-03-17T06:12:46.340Z,-10.43
2023-03-17T06:15:13.710Z,-10.40
2023-03-17T06:17:40.552Z,-10.38
2023-03-17T06:20:08.214Z,-10.39
2023-03-17T06:22:35.331Z,-10.32
2023-03-17T06:25:02.213Z,-10.29
2023-03-17T06:27:29.232Z,-10.25
2023-03-17T06:29:57.480Z,-10.22
2023-03-17T06:32:24.337Z,-10.18
2023-03-17T06:34:51.951Z,-10.14
2023-03-17T06:37:19.355Z,-10.10
2023-03-17T06:39:46.324Z,-10.06
2023-03-17T06:42:13.324Z,-10.01
2023-03-17T06:44:41.635Z,-9.97
2023-03-17T06:47:08.737Z,-9.93
2023-03-17T06:49:35.702Z,-9.88
2023-03-17T06:52:02.619Z,-9.85
2023-03-17T06:54:29.499Z,-9.80
2023-03-17T06:56:56.629Z,-9.83
2023-03-17T06:59:23.884Z,-9.71
2023-03-17T07:01:52.067Z,-9.66
2023-03-17T07:04:21.047Z,-9.62
2023-03-17T07:06:48.212Z,-9.57
2023-03-17T07:09:15.652Z,-9.53
2023-03-17T07:11:43.140Z,-9.47
2023-03-17T07:14:10.187Z,-9.42
2023-03-17T07:16:37.720Z,-9.36
2023-03-17T07:19:05.039Z,-9.32
2023-03-17T07:21:31.925Z,-9.26
2023-03-17T07:23:58.956Z,-9.20
2023-03-17T07:26:26.529Z,-9.15
2023-03-17T07:28:53.489Z,-9.09
2023-03-17T07:31:20.761Z,-9.03
2023-03-17T07:33:47.935Z,-8.97
2023-03-17T07:36:15.868Z,-8.92
2023-03-17T07:38:43.807Z,-8.89
2023-03-17T07:41:11.077Z,-8.79
2023-03-17T07:43:38.546Z,-8.88
2023-03-17T07:46:06.560Z,-8.67
2023-03-17T07:48:36.623Z,-8.59
2023-03-17T07:51:03.687Z,-8.64
2023-03-17T07:53:30.799Z,-8.73
2023-03-17T07:55:57.672Z,-8.40
2023-03-17T07:58:24.698Z,-8.34
2023-03-17T08:00:51.801Z,-8.24
2023-03-17T08:03:19.620Z,-8.20
2023-03-17T08:05:53.359Z,-8.11
2023-03-17T08:08:22.283Z,-8.03
2023-03-17T08:10:50.639Z,-8.13
2023-03-17T08:13:18.814Z,-7.93
2023-03-17T08:15:46.505Z,-7.80
2023-03-17T08:18:13.496Z,-7.72
2023-03-17T08:20:40.790Z,-7.64
2023-03-17T08:23:07.690Z,-7.56
2023-03-17T08:25:34.623Z,-7.49
2023-03-17T08:28:01.881Z,-7.40
2023-03-17T08:30:32.390Z,-7.40
2023-03-17T08:33:00.302Z,-7.23
2023-03-17T08:35:27.302Z,-7.16
2023-03-17T08:37:56.303Z,-7.06
2023-03-17T08:40:23.519Z,-7.11
2023-03-17T08:42:50.709Z,-6.93
2023-03-17T08:45:19.458Z,-6.83
2023-03-17T08:47:47.675Z,-6.76
2023-03-17T08:50:22.080Z,-6.68
2023-03-17T08:52:49.587Z,-6.61
2023-03-17T08:55:16.678Z,-6.52
2023-03-17T08:57:44.867Z,-6.46
2023-03-17T09:00:14.098Z,-6.63
2023-03-17T09:02:43.522Z,-6.30
2023-03-17T09:05:17.016Z,-6.26
2023-03-17T09:07:44.646Z,-6.14
2023-03-17T09:10:13.805Z,-6.04
2023-03-17T09:12:40.948Z,-5.96
2023-03-17T09:15:08.858Z,-5.87
2023-03-17T09:17:36.177Z,-5.77
2023-03-17T09:20:03.651Z,-5.69
2023-03-17T09:22:31.100Z,-5.60
2023-03-17T09:24:58.711Z,-5.50
2023-03-17T09:27:25.865Z,-5.52
2023-03-17T09:29:52.837Z,-5.33
2023-03-17T09:32:19.724Z,-5.25
2023-03-17T09:34:49.157Z,-5.15
2023-03-17T09:37:18.034Z,-5.45
2023-03-17T09:39:44.948Z,-5.00
2023-03-17T09:42:23.750Z,-4.92
2023-03-17T09:45:18.008Z,-4.82
2023-03-17T09:48:06.114Z,-4.72
2023-03-17T09:50:45.466Z,-4.62
2023-03-17T09:53:35.926Z,-4.52
2023-03-17T09:56:08.693Z,-4.79
2023-03-17T09:58:38.003Z,-4.56
2023-03-17T10:01:05.681Z,-4.26
2023-03-17T10:03:34.192Z,-4.47
2023-03-17T10:06:23.166Z,-4.07
2023-03-17T10:09:27.219Z,-4.02
2023-03-17T10:12:26.794Z,-3.86
2023-03-17T10:15:06.819Z,-3.76
2023-03-17T10:17:40.701Z,-3.68
2023-03-17T10:20:40.288Z,-3.65
2023-03-17T10:23:15.273Z,-3.67
2023-03-17T10:25:42.786Z,-3.45
2023-03-17T10:28:27.758Z,-3.37
2023-03-17T10:30:54.927Z,-3.32
2023-03-17T10:33:22.414Z,-3.22
2023-03-17T10:35:49.508Z,-3.15
2023-03-17T10:38:22.124Z,-3.08
2023-03-17T10:41:00.738Z,-3.00
2023-03-17T10:43:36.331Z,-2.97
2023-03-17T10:46:06.538Z,-2.84
2023-03-17T10:48:38.734Z,-2.78
2023-03-17T10:51:09.335Z,-2.75
2023-03-17T10:53:43.854Z,-3.00
2023-03-17T10:56:31.020Z,-2.56
2023-03-17T10:59:06.486Z,-2.85
2023-03-17T11:01:44.198Z,-2.41
2023-03-17T11:04:32.331Z,-2.32
2023-03-17T11:07:05.415Z,-2.25
2023-03-17T11:09:36.927Z,-2.17
2023-03-17T11:12:19.220Z,-2.12
2023-03-17T11:14:48.386Z,-1.99
2023-03-17T11:17:36.471Z,-1.92
2023-03-17T11:20:21.147Z,-1.78
2023-03-17T11:23:22.478Z,-1.64
2023-03-17T11:25:58.732Z,-1.55
2023-03-17T11:28:33.666Z,-1.50
2023-03-17T11:31:27.957Z,-1.31
2023-03-17T11:34:14.294Z,-1.19
2023-03-17T11:37:10.210Z,-1.07
2023-03-17T11:40:03.122Z,-0.98
2023-03-17T11:42:54.357Z,-0.88
2023-03-17T11:45:51.970Z,-0.78
2023-03-17T11:48:47.545Z,-0.66
2023-03-17T11:51:43.363Z,-0.56
2023-03-17T11:54:18.259Z,-0.48
2023-03-17T11:56:48.502Z,-0.39
2023-03-17T11:59:39.654Z,-0.30
2023-03-17T12:02:19.328Z,-0.22
2023-03-17T12:05:09.993Z,-0.14
2023-03-17T12:07:44.671Z,-0.08
2023-03-17T12:10:31.222Z,-0.06
2023-03-17T12:13:12.191Z,0.05
2023-03-17T12:15:47.562Z,0.00
2023-03-17T12:18:31.265Z,0.17
2023-03-17T12:21:02.157Z,0.20
2023-03-17T12:23:38.372Z,0.16
2023-03-17T12:26:19.142Z,0.29
2023-03-17T12:28:58.255Z,0.32
2023-03-17T12:31:58.682Z,0.37
2023-03-17T12:34:42.841Z,0.39
2023-03-17T12:37:09.966Z,0.41
2023-03-17T12:39:37.657Z,0.47
2023-03-17T12:42:43.615Z,0.50
2023-03-17T12:45:48.799Z,0.43
2023-03-17T12:48:53.254Z,0.56
2023-03-17T12:51:52.647Z,0.61
2023-03-17T12:54:26.512Z,0.63
2023-03-17T12:57:00.223Z,0.66
2023-03-17T12:59:28.239Z,0.69
2023-03-17T13:02:15.559Z,0.71
2023-03-17T13:04:57.959Z,0.75
2023-03-17T13:07:46.933Z,0.76
2023-03-17T13:10:37.607Z,0.80
2023-03-17T13:13:10.544Z,0.78
2023-03-17T13:15:38.714Z,0.85
2023-03-17T13:18:14.588Z,0.86
2023-03-17T13:20:44.712Z,0.85
2023-03-17T13:23:11.687Z,0.93
2023-03-17T13:25:48.171Z,0.91
2023-03-17T13:28:15.464Z,0.98
2023-03-17T13:30:57.151Z,1.01
2023-03-17T13:33:31.454Z,1.03
2023-03-17T13:36:17.366Z,1.03
2023-03-17T13:39:18.713Z,1.04
2023-03-17T13:42:12.068Z,1.04
2023-03-17T13:45:08.100Z,1.06
2023-03-17T13:47:38.496Z,1.06
2023-03-17T13:50:14.963Z,1.07
2023-03-17T13:53:02.948Z,1.06
2023-03-17T13:55:37.936Z,1.07
2023-03-17T13:58:12.128Z,1.07
2023-03-17T14:00:41.468Z,1.09
2023-03-17T14:03:20.743Z,1.09
2023-03-17T14:05:50.342Z,1.07
2023-03-17T14:08:27.654Z,1.09
2023-03-17T14:11:00.755Z,1.09
2023-03-17T14:14:26.098Z,0.80
2023-03-17T14:17:12.222Z,1.03
2023-03-17T14:19:41.807Z,1.08
2023-03-17T14:22:25.548Z,1.07
2023-03-17T14:24:54.492Z,1.09
2023-03-17T14:27:24.090Z,1.09
2023-03-17T14:29:52.394Z,1.08
2023-03-17T14:32:23.823Z,1.08
2023-03-17T14:34:56.823Z,1.03
2023-03-17T14:37:24.427Z,1.08
2023-03-17T14:39:54.648Z,0.73
2023-03-17T14:42:28.450Z,1.10
2023-03-17T14:45:05.578Z,1.10
2023-03-17T14:47:40.044Z,1.11
2023-03-17T14:50:17.524Z,1.12
2023-03-17T14:52:44.779Z,1.08
2023-03-17T14:55:14.636Z,1.12
2023-03-17T14:57:41.870Z,1.13
2023-03-17T15:00:34.237Z,1.12
2023-03-17T15:03:05.157Z,1.01
2023-03-17T15:05:40.842Z,1.08
2023-03-17T15:08:38.275Z,1.14
2023-03-17T15:11:06.856Z,1.14
2023-03-17T15:13:37.037Z,1.13
2023-03-17T15:16:17.001Z,1.15
2023-03-17T15:18:44.926Z,1.15
2023-03-17T15:21:32.496Z,1.14
2023-03-17T15:24:19.736Z,1.14
2023-03-17T15:26:46.902Z,1.16
2023-03-17T15:29:13.810Z,1.15
2023-03-17T15:31:40.799Z,1.14
2023-03-17T15:34:13.484Z,1.14
2023-03-17T15:36:40.740Z,1.16
2023-03-17T15:39:09.812Z,1.13
2023-03-17T15:41:36.853Z,1.16
2023-03-17T15:44:05.214Z,1.12
2023-03-17T15:46:33.631Z,1.13
2023-03-17T15:49:01.047Z,1.15
2023-03-17T15:51:28.075Z,1.08
2023-03-17T15:53:55.098Z,1.16
2023-03-17T15:56:22.374Z,1.14
2023-03-17T15:58:52.327Z,1.13
2023-03-17T16:01:20.068Z,1.15
2023-03-17T16:03:48.276Z,1.13
2023-03-17T16:06:21.293Z,0.80
2023-03-17T16:08:49.527Z,1.02
2023-03-17T16:11:20.140Z,1.14
2023-03-17T16:13:47.634Z,1.11
2023-03-17T16:16:23.455Z,0.80
2023-03-17T16:18:51.659Z,1.13
2023-03-17T16:21:19.337Z,1.14
2023-03-17T16:23:48.479Z,1.14
2023-03-17T16:26:17.125Z,1.11
2023-03-17T16:28:46.265Z,1.11
2023-03-17T16:31:30.237Z,1.13
2023-03-17T16:33:57.397Z,1.12
2023-03-17T16:36:25.581Z,1.12
2023-03-17T16:38:53.344Z,1.05
2023-03-17T16:41:23.452Z,1.11
2023-03-17T16:43:53.719Z,1.11
2023-03-17T16:46:22.628Z,1.10
2023-03-17T16:48:50.720Z,0.95
2023-03-17T16:51:18.127Z,0.90
2023-03-17T16:53:45.766Z,1.08
2023-03-17T16:56:18.871Z,1.08
2023-03-17T16:58:47.025Z,1.08
2023-03-17T17:01:23.576Z,1.06
2023-03-17T17:03:51.224Z,1.07
2023-03-17T17:06:19.993Z,1.06
2023-03-17T17:08:48.353Z,1.05
2023-03-17T17:11:17.232Z,1.05
2023-03-17T17:13:46.758Z,1.04
2023-03-17T17:16:28.319Z,1.03
2023-03-17T17:18:56.061Z,1.03
2023-03-17T17:21:23.251Z,1.03
2023-03-17T17:23:52.772Z,1.04
2023-03-17T17:26:20.177Z,1.03
2023-03-17T17:28:47.115Z,1.03
2023-03-17T17:31:13.994Z,0.99
2023-03-17T17:33:41.047Z,1.03
2023-03-17T17:36:34.571Z,0.93
2023-03-17T17:39:21.492Z,1.04
2023-03-17T17:42:08.502Z,1.03
2023-03-17T17:44:55.302Z,1.05
2023-03-17T17:47:42.319Z,1.04
2023-03-17T17:50:32.647Z,0.85
2023-03-17T17:53:19.993Z,1.04
2023-03-17T17:56:08.636Z,1.07
2023-03-17T17:58:55.550Z,1.08
2023-03-17T18:01:42.448Z,1.08
2023-03-17T18:04:32.510Z,1.10
2023-03-17T18:07:19.402Z,1.10
2023-03-17T18:10:06.481Z,1.13
2023-03-17T18:12:53.619Z,1.13
2023-03-17T18:15:41.076Z,1.15
2023-03-17T18:18:28.496Z,1.17
2023-03-17T18:21:15.530Z,1.19
2023-03-17T18:24:02.428Z,1.22
2023-03-17T18:26:49.301Z,1.23
2023-03-17T18:29:36.326Z,1.24
2023-03-17T18:32:24.934Z,1.20
2023-03-17T18:35:12.048Z,1.27
2023-03-17T18:37:59.103Z,1.28
2023-03-17T18:40:46.237Z,1.30
2023-03-17T18:43:33.280Z,1.30
2023-03-17T18:46:20.746Z,1.31
2023-03-17T18:49:07.803Z,1.17
2023-03-17T18:51:55.048Z,1.29
2023-03-17T18:54:42.941Z,1.28
2023-03-17T18:57:29.922Z,1.09
2023-03-17T19:00:17.184Z,1.27
2023-03-17T19:03:04.582Z,1.25
2023-03-17T19:05:51.651Z,1.24
2023-03-17T19:08:38.453Z,1.26
2023-03-17T19:11:27.503Z,1.26
2023-03-17T19:14:14.419Z,1.11
2023-03-17T19:17:01.494Z,1.22
2023-03-17T19:19:48.472Z,1.21
2023-03-17T19:22:35.717Z,1.21
2023-03-17T19:25:23.011Z,1.21
2023-03-17T19:28:09.868Z,1.20
2023-03-17T19:30:56.814Z,1.21
2023-03-17T19:33:43.925Z,1.15
2023-03-17T19:36:32.654Z,1.17
2023-03-17T19:39:19.494Z,1.20
2023-03-17T19:42:06.526Z,1.20
2023-03-17T19:44:53.698Z,1.17
2023-03-17T19:47:40.738Z,1.15
2023-03-17T19:50:28.590Z,1.14
2023-03-17T19:53:15.500Z,1.18
2023-03-17T19:56:03.498Z,1.18
2023-03-17T19:58:50.470Z,1.17
2023-03-17T20:01:37.580Z,1.17
2023-03-17T20:04:25.199Z,0.98
2023-03-17T20:07:12.198Z,1.16
2023-03-17T20:09:59.253Z,1.15
2023-03-17T20:12:46.354Z,1.12
2023-03-17T20:15:33.538Z,1.16
2023-03-17T20:18:20.657Z,1.15
2023-03-17T20:21:14.461Z,1.13
2023-03-17T20:24:01.382Z,1.13
2023-03-17T20:26:48.359Z,1.13
2023-03-17T20:29:35.950Z,1.13
2023-03-17T20:32:23.605Z,1.12
2023-03-17T20:35:10.619Z,1.12
2023-03-17T20:37:57.467Z,1.09
2023-03-17T20:40:45.764Z,0.92
2023-03-17T20:43:32.793Z,1.12
2023-03-17T20:46:19.793Z,1.10
2023-03-17T20:49:09.690Z,1.07
2023-03-17T20:51:57.139Z,1.11
2023-03-17T20:54:43.983Z,1.11
2023-03-17T20:57:36.939Z,0.86
2023-03-17T21:00:24.379Z,1.12
2023-03-17T21:03:11.516Z,1.13
2023-03-17T21:05:58.453Z,1.14
2023-03-17T21:08:45.397Z,1.10
2023-03-17T21:11:38.128Z,1.15
2023-03-17T21:14:26.326Z,1.13
2023-03-17T21:17:13.370Z,1.17
2023-03-17T21:20:00.535Z,1.17
2023-03-17T21:22:47.630Z,1.16
2023-03-17T21:25:34.725Z,1.10
2023-03-17T21:28:22.206Z,1.17
2023-03-17T21:31:10.059Z,1.03
2023-03-17T21:33:57.227Z,1.15
2023-03-17T21:36:44.189Z,1.17
2023-03-17T21:39:31.416Z,1.07
2023-03-17T21:42:18.689Z,1.14
2023-03-17T21:45:05.712Z,1.15
2023-03-17T21:47:52.894Z,0.91
2023-03-17T21:50:40.247Z,1.16
2023-03-17T21:53:27.558Z,1.16
2023-03-17T21:56:14.354Z,1.17
2023-03-17T21:59:01.636Z,1.16
2023-03-17T22:01:48.612Z,0.99
2023-03-17T22:04:35.542Z,1.16
2023-03-17T22:07:22.418Z,1.15
2023-03-17T22:10:13.207Z,1.06
2023-03-17T22:13:00.049Z,1.17
2023-03-17T22:15:47.052Z,0.84
2023-03-17T22:18:33.907Z,1.17
2023-03-17T22:21:21.060Z,1.17
2023-03-17T22:24:08.233Z,1.19
2023-03-17T22:26:55.217Z,1.18
2023-03-17T22:29:42.111Z,1.17
2023-03-17T22:32:29.583Z,1.17
2023-03-17T22:35:16.472Z,0.81
2023-03-17T22:38:03.526Z,1.18
2023-03-17T22:40:50.680Z,1.19
2023-03-17T22:43:37.715Z,1.18
2023-03-17T22:46:24.973Z,1.18
2023-03-17T22:49:11.970Z,1.18
2023-03-17T22:51:59.316Z,1.19
2023-03-17T22:54:46.248Z,1.18
2023-03-17T22:57:33.129Z,1.19
2023-03-17T23:00:20.985Z,1.17
2023-03-17T23:03:07.902Z,1.14
2023-03-17T23:05:54.903Z,1.16
2023-03-17T23:08:41.806Z,1.15
2023-03-17T23:11:31.788Z,1.14
2023-03-17T23:14:18.763Z,1.14
2023-03-17T23:17:05.855Z,1.12
2023-03-17T23:19:52.913Z,1.00
2023-03-17T23:22:40.004Z,1.10
2023-03-17T23:25:27.121Z,1.08
2023-03-17T23:28:14.329Z,1.09
2023-03-17T23:31:02.910Z,0.83
2023-03-17T23:33:50.146Z,1.05
2023-03-17T23:36:37.781Z,0.78
2023-03-17T23:39:24.755Z,0.89
2023-03-17T23:42:11.558Z,0.69
2023-03-17T23:44:58.871Z,0.96
2023-03-17T23:47:45.936Z,1.00
2023-03-17T23:50:34.343Z,1.00
2023-03-17T23:53:21.429Z,0.99
2023-03-17T23:56:08.424Z,0.82
2023-03-17T23:58:55.483Z,0.95
